Johor Bahru, Malaysia
Current Conditions -  °F | °C
As of 8:00 AM on Monday 22 Dec 2014 (Local Time) from WSSL Reporting Station
Broken Clouds Broken Clouds  
Wind Chill: 79°   Ceiling: 15000
Heat Index: 82°   Visibility: 6mi
Dew Point: 75°   Wind: 2mph
Humidity: 89%   Direction: NA
Pressure: 29.77"   Gusts: NA
Location:  1.48°N, 103.75°E
Report Text: WSSL 220000Z VRB02KT 9999 FEW016 BKN150 26/24 Q1008 RMK 2330ZQ1007
Loading
Personal Weather Stations






























Interactive Weather Map New forecast layout! Learn more

10-Day Weather Forecast

Advertisements
Track Severe Weather on mobile